Time;durP1;ratioP1;P1;durP2;ratioP2;P2;SDS_P1;SDS_P2;PMS_P1;PMS_P2;Temp;Humidity;BMP_temperature;BMP_pressure;BME280_temperature;BME280_humidity;BME280_pressure;Samples;Min_cycle;Max_cycle;Signal;HPM_P1;HPM_P2
2023/05/19 00:01:58;;;;;;;6.53;4.00;;;8.80;99.90;;;;;;5016186;28;20249;-57
2023/05/19 00:04:28;;;;;;;7.47;4.30;;;8.80;99.90;;;;;;5015056;28;20260;-57
2023/05/19 00:06:59;;;;;;;6.10;3.73;;;8.80;99.90;;;;;;5016314;28;20249;-57
2023/05/19 00:09:27;;;;;;;9.13;4.17;;;8.70;99.90;;;;;;5016166;28;20225;-57
2023/05/19 00:11:56;;;;;;;6.13;3.63;;;8.70;99.90;;;;;;5016185;28;20230;-57
2023/05/19 00:14:24;;;;;;;6.17;3.80;;;8.70;99.90;;;;;;5013313;28;20598;-57
2023/05/19 00:16:54;;;;;;;6.73;3.80;;;8.70;99.90;;;;;;5014741;28;20222;-57
2023/05/19 00:19:25;;;;;;;6.47;4.27;;;8.60;99.90;;;;;;5016084;28;20225;-57
2023/05/19 00:21:53;;;;;;;6.83;4.40;;;8.60;99.90;;;;;;5025966;28;20579;-57
2023/05/19 00:24:21;;;;;;;5.47;4.10;;;8.50;99.90;;;;;;5016169;28;20225;-57
2023/05/19 00:26:49;;;;;;;4.80;3.60;;;8.50;99.90;;;;;;5015738;28;20225;-56
2023/05/19 00:29:17;;;;;;;7.60;4.30;;;8.50;99.90;;;;;;4995114;28;20693;-56
2023/05/19 00:31:46;;;;;;;6.13;3.87;;;8.40;99.90;;;;;;4995707;28;20270;-57
2023/05/19 00:34:14;;;;;;;4.83;3.90;;;8.40;99.90;;;;;;4985892;28;20350;-57
2023/05/19 00:36:44;;;;;;;5.67;3.90;;;8.40;99.90;;;;;;4975405;28;20241;-57
2023/05/19 00:39:14;;;;;;;6.00;4.07;;;8.40;99.90;;;;;;4977109;28;20647;-57
2023/05/19 00:41:42;;;;;;;7.60;4.00;;;8.40;99.90;;;;;;4976551;28;20238;-57
2023/05/19 00:44:10;;;;;;;6.07;4.50;;;8.40;99.90;;;;;;4992256;28;20234;-57
2023/05/19 00:46:38;;;;;;;5.70;4.30;;;8.30;99.90;;;;;;5007165;28;20694;-57
2023/05/19 00:49:06;;;;;;;7.80;3.77;;;8.30;99.90;;;;;;4996010;28;20273;-57
2023/05/19 00:51:35;;;;;;;8.97;4.30;;;8.30;99.90;;;;;;5004347;28;20303;-57
2023/05/19 00:54:05;;;;;;;4.67;3.90;;;8.30;99.90;;;;;;5003767;28;20757;-57
2023/05/19 00:56:33;;;;;;;7.00;4.13;;;8.20;99.90;;;;;;4995767;28;20222;-58
2023/05/19 00:59:02;;;;;;;7.47;4.00;;;8.20;99.90;;;;;;4984333;28;20757;-57
2023/05/19 01:01:31;;;;;;;6.27;4.40;;;8.20;99.90;;;;;;4974555;28;20240;-57
2023/05/19 01:03:59;;;;;;;8.00;4.20;;;8.20;99.90;;;;;;4974114;28;20230;-56
2023/05/19 01:06:28;;;;;;;7.10;4.63;;;8.20;99.90;;;;;;4982839;28;20612;-57
2023/05/19 01:08:57;;;;;;;6.67;4.47;;;8.20;99.90;;;;;;4995668;28;20605;-57
2023/05/19 01:11:26;;;;;;;5.77;4.70;;;8.20;99.90;;;;;;4994239;28;20750;-56
2023/05/19 01:13:55;;;;;;;6.20;4.50;;;8.10;99.90;;;;;;4984598;28;20249;-57
2023/05/19 01:16:29;;;;;;;7.23;4.47;;;8.10;99.90;;;;;;4994547;28;20685;-57
2023/05/19 01:19:05;;;;;;;6.13;4.03;;;8.10;99.90;;;;;;5030090;23;20888;-57
2023/05/19 01:21:56;;;;;;;6.67;4.20;;;8.10;99.90;;;;;;5012438;28;20261;-57
2023/05/19 01:24:39;;;;;;;5.10;3.93;;;8.00;99.90;;;;;;4990136;28;20222;-57
2023/05/19 01:27:24;;;;;;;6.17;4.07;;;8.00;99.90;;;;;;4995448;28;20217;-57
2023/05/19 01:30:24;;;;;;;6.43;4.17;;;7.90;99.90;;;;;;5011832;28;20686;-57
2023/05/19 01:32:54;;;;;;;4.70;3.80;;;7.90;99.90;;;;;;5015003;28;20295;-57
2023/05/19 01:35:26;;;;;;;6.97;4.00;;;7.90;99.90;;;;;;5014694;28;20749;-57
2023/05/19 01:37:56;;;;;;;4.97;4.23;;;7.90;99.90;;;;;;5014322;28;20296;-57
2023/05/19 01:40:26;;;;;;;5.57;4.20;;;7.80;99.90;;;;;;5014527;28;20233;-56
2023/05/19 01:42:56;;;;;;;9.57;4.53;;;7.80;99.90;;;;;;5014586;28;20623;-57
2023/05/19 01:45:29;;;;;;;6.83;4.57;;;7.80;99.90;;;;;;5002696;28;20225;-57
2023/05/19 01:48:00;;;;;;;6.17;4.73;;;7.80;99.90;;;;;;4993529;28;20586;-56
2023/05/19 01:50:28;;;;;;;7.30;4.53;;;7.70;99.90;;;;;;5002280;28;20253;-57
2023/05/19 01:52:57;;;;;;;6.07;4.57;;;7.70;99.90;;;;;;5011668;28;20576;-57
2023/05/19 01:55:25;;;;;;;5.73;4.40;;;7.70;99.90;;;;;;4998078;28;20325;-56
2023/05/19 01:58:03;;;;;;;6.20;4.27;;;7.60;99.90;;;;;;4995853;28;20309;-57
2023/05/19 02:00:42;;;;;;;6.53;4.67;;;7.70;99.90;;;;;;4994076;28;20755;-57
2023/05/19 02:03:23;;;;;;;6.33;4.50;;;7.60;99.90;;;;;;5004869;28;20996;-57
2023/05/19 02:05:59;;;;;;;7.87;4.40;;;7.60;99.90;;;;;;4975852;28;20690;-57
2023/05/19 02:08:32;;;;;;;7.37;4.70;;;7.70;99.90;;;;;;4973630;28;20254;-57
2023/05/19 02:11:04;;;;;;;7.50;5.00;;;7.60;99.90;;;;;;4973795;28;20329;-57
2023/05/19 02:13:37;;;;;;;6.73;4.13;;;7.60;99.90;;;;;;4989180;28;20284;-56
2023/05/19 02:16:08;;;;;;;9.20;4.40;;;7.60;99.90;;;;;;4989342;28;20268;-57
2023/05/19 02:18:36;;;;;;;7.43;4.67;;;7.50;99.90;;;;;;4995999;28;20241;-56
2023/05/19 02:21:04;;;;;;;8.70;4.80;;;7.50;99.90;;;;;;4988380;28;20229;-56
2023/05/19 02:23:32;;;;;;;6.50;4.63;;;7.50;99.90;;;;;;4985809;28;20227;-56
2023/05/19 02:26:00;;;;;;;8.10;3.97;;;7.50;99.90;;;;;;4974810;28;20219;-55
2023/05/19 02:28:28;;;;;;;7.47;4.50;;;7.50;99.90;;;;;;4985128;28;20244;-56
2023/05/19 02:30:58;;;;;;;7.00;4.77;;;7.50;99.90;;;;;;4992493;28;20333;-57
2023/05/19 02:33:30;;;;;;;6.07;4.57;;;7.40;99.90;;;;;;4979081;28;20258;-57
2023/05/19 02:35:58;;;;;;;4.97;4.30;;;7.50;99.90;;;;;;4974536;28;20230;-57
2023/05/19 02:38:26;;;;;;;5.87;4.13;;;7.40;99.90;;;;;;4974493;28;20215;-57
2023/05/19 02:40:54;;;;;;;6.40;4.57;;;7.40;99.90;;;;;;4974530;28;20222;-56
2023/05/19 02:43:24;;;;;;;7.97;4.40;;;7.40;99.90;;;;;;4985657;28;20592;-57
2023/05/19 02:45:52;;;;;;;7.57;4.60;;;7.40;99.90;;;;;;4979389;28;20221;-57
2023/05/19 02:48:20;;;;;;;6.57;4.43;;;7.40;99.90;;;;;;4974417;28;20233;-57
2023/05/19 02:50:49;;;;;;;8.27;4.30;;;7.40;99.90;;;;;;4985636;28;20221;-57
2023/05/19 02:53:17;;;;;;;8.00;5.03;;;7.40;99.90;;;;;;4987943;28;20873;-57
2023/05/19 02:55:45;;;;;;;7.33;4.87;;;7.40;99.90;;;;;;4972892;28;20230;-57
2023/05/19 02:58:13;;;;;;;8.10;4.90;;;7.30;99.90;;;;;;4983223;28;20226;-57
2023/05/19 03:00:43;;;;;;;6.90;4.53;;;7.30;99.90;;;;;;4980772;28;20242;-57
2023/05/19 03:03:11;;;;;;;7.33;5.13;;;7.30;99.90;;;;;;4977308;28;20233;-57
2023/05/19 03:05:39;;;;;;;6.27;4.30;;;7.30;99.90;;;;;;4993385;28;20715;-58
2023/05/19 03:08:08;;;;;;;7.50;4.57;;;7.30;99.90;;;;;;4992323;28;20329;-56
2023/05/19 03:10:36;;;;;;;7.77;5.10;;;7.30;99.90;;;;;;4991523;28;20308;-57
2023/05/19 03:13:04;;;;;;;6.37;5.00;;;7.30;99.90;;;;;;4987376;28;20269;-57
2023/05/19 03:15:34;;;;;;;6.27;4.20;;;7.30;99.90;;;;;;4972352;28;20231;-57
2023/05/19 03:18:02;;;;;;;7.13;4.40;;;7.30;99.90;;;;;;4973937;28;20234;-57
2023/05/19 03:20:30;;;;;;;6.50;4.10;;;7.30;99.90;;;;;;4984566;28;20242;-57
2023/05/19 03:22:58;;;;;;;5.07;4.20;;;7.30;99.90;;;;;;4990438;28;20682;-57
2023/05/19 03:25:28;;;;;;;8.10;4.50;;;7.30;99.90;;;;;;4972114;28;20226;-56
2023/05/19 03:27:56;;;;;;;8.00;4.47;;;7.20;99.90;;;;;;4976747;28;20595;-57
2023/05/19 03:30:24;;;;;;;7.73;4.60;;;7.20;99.90;;;;;;4981541;28;20227;-57
2023/05/19 03:33:06;;;;;;;5.93;4.10;;;7.20;99.90;;;;;;4975475;28;20758;-57
2023/05/19 03:35:34;;;;;;;6.87;5.27;;;7.20;99.90;;;;;;4990969;28;20269;-57
2023/05/19 03:38:03;;;;;;;4.97;4.40;;;7.30;99.90;;;;;;4992036;28;20317;-57
2023/05/19 03:40:32;;;;;;;7.73;4.43;;;7.30;99.90;;;;;;4991724;28;20240;-58
2023/05/19 03:43:06;;;;;;;8.13;4.60;;;7.30;99.90;;;;;;4984858;28;20579;-57
2023/05/19 03:45:41;;;;;;;5.27;4.47;;;7.30;99.90;;;;;;4978809;28;20252;-56
2023/05/19 03:48:32;;;;;;;6.93;4.40;;;7.30;99.90;;;;;;4954650;28;20256;-57
2023/05/19 03:51:23;;;;;;;5.87;4.63;;;7.30;99.90;;;;;;4978268;28;20585;-57
2023/05/19 03:53:55;;;;;;;7.03;4.87;;;7.30;99.90;;;;;;4990440;28;20289;-57
2023/05/19 03:56:26;;;;;;;6.30;4.37;;;7.30;99.90;;;;;;4991814;28;20233;-55
2023/05/19 03:58:54;;;;;;;8.33;4.50;;;7.30;99.90;;;;;;4990040;28;20245;-57
2023/05/19 04:01:22;;;;;;;8.53;5.03;;;7.30;99.90;;;;;;4972002;28;20234;-55
2023/05/19 04:03:51;;;;;;;6.77;4.53;;;7.30;99.90;;;;;;4979930;28;20230;-57
2023/05/19 04:06:19;;;;;;;6.27;4.53;;;7.30;99.90;;;;;;4993011;28;20228;-57
2023/05/19 04:08:47;;;;;;;8.90;5.00;;;7.30;99.90;;;;;;4976996;28;20302;-57
2023/05/19 04:11:15;;;;;;;7.13;4.80;;;7.30;99.90;;;;;;4973591;28;20310;-57
2023/05/19 04:13:44;;;;;;;9.70;5.20;;;7.40;99.90;;;;;;4979437;28;20221;-57
2023/05/19 04:16:12;;;;;;;8.87;5.20;;;7.40;99.90;;;;;;4975718;28;20227;-56
2023/05/19 04:18:44;;;;;;;10.37;5.13;;;7.40;99.90;;;;;;4987016;28;20601;-57
2023/05/19 04:21:12;;;;;;;6.83;4.63;;;7.40;99.90;;;;;;4988145;28;20230;-57
2023/05/19 04:23:40;;;;;;;10.37;4.80;;;7.40;99.90;;;;;;4988950;28;20222;-57
2023/05/19 04:26:08;;;;;;;7.67;4.47;;;7.40;99.90;;;;;;4991281;28;20566;-58
2023/05/19 04:28:38;;;;;;;8.93;4.43;;;7.50;99.90;;;;;;4988936;28;20678;-57
2023/05/19 04:31:09;;;;;;;8.33;4.43;;;7.50;99.90;;;;;;4971713;28;20637;-58
2023/05/19 04:33:38;;;;;;;8.27;4.73;;;7.50;99.90;;;;;;4977010;28;20234;-56
2023/05/19 04:36:09;;;;;;;8.50;4.70;;;7.60;99.90;;;;;;4991433;28;20234;-57
2023/05/19 04:38:40;;;;;;;9.80;4.67;;;7.60;99.90;;;;;;4992916;28;20289;-57
2023/05/19 04:41:10;;;;;;;8.20;5.10;;;7.60;99.90;;;;;;4994925;28;20249;-58
2023/05/19 04:43:43;;;;;;;8.43;4.73;;;7.70;99.90;;;;;;4989154;28;20233;-57
2023/05/19 04:46:14;;;;;;;9.07;5.13;;;7.70;99.90;;;;;;4975211;28;20310;-57
2023/05/19 04:48:44;;;;;;;10.80;4.93;;;7.80;99.90;;;;;;4975183;28;20272;-57
2023/05/19 04:51:13;;;;;;;7.13;5.00;;;7.80;99.90;;;;;;4986696;28;20628;-57
2023/05/19 04:53:41;;;;;;;8.10;4.70;;;7.90;99.90;;;;;;4990978;28;20625;-55
2023/05/19 04:56:13;;;;;;;10.53;5.53;;;7.90;99.90;;;;;;4994650;28;20701;-57
2023/05/19 04:58:43;;;;;;;7.73;4.40;;;7.90;99.90;;;;;;4990604;28;20230;-57
2023/05/19 05:01:14;;;;;;;5.97;4.37;;;8.00;99.90;;;;;;4976069;28;20700;-57
2023/05/19 05:03:43;;;;;;;7.13;4.83;;;8.10;99.90;;;;;;4980012;28;20221;-57
2023/05/19 05:06:11;;;;;;;7.80;4.67;;;8.20;99.90;;;;;;4995736;28;20665;-57
2023/05/19 05:08:40;;;;;;;7.70;4.67;;;8.20;99.90;;;;;;4993515;28;20229;-57
2023/05/19 05:11:09;;;;;;;7.30;4.97;;;8.20;99.90;;;;;;4976981;28;20311;-57
2023/05/19 05:13:37;;;;;;;9.93;5.03;;;8.30;99.90;;;;;;4978883;28;20234;-57
2023/05/19 05:16:07;;;;;;;11.57;4.87;;;8.30;99.90;;;;;;4977884;28;20604;-57
2023/05/19 05:18:38;;;;;;;9.10;5.40;;;8.40;99.90;;;;;;4974331;28;20227;-56
2023/05/19 05:21:07;;;;;;;9.27;5.00;;;8.50;99.90;;;;;;4984740;28;20253;-57
2023/05/19 05:23:36;;;;;;;8.63;5.47;;;8.40;99.90;;;;;;4989696;28;20593;-57
2023/05/19 05:26:18;;;;;;;7.70;5.10;;;8.50;99.90;;;;;;4991977;28;20268;-58
2023/05/19 05:28:48;;;;;;;9.90;5.20;;;8.50;99.90;;;;;;4975555;28;20276;-56
2023/05/19 05:31:17;;;;;;;10.30;4.90;;;8.60;99.90;;;;;;4990044;28;20717;-56
2023/05/19 05:33:46;;;;;;;7.00;4.40;;;8.70;99.90;;;;;;4974367;28;20321;-57
2023/05/19 05:36:16;;;;;;;8.03;5.37;;;8.70;99.90;;;;;;4981677;28;20634;-57
2023/05/19 05:38:45;;;;;;;7.83;5.27;;;8.80;99.90;;;;;;4993702;28;20230;-57
2023/05/19 05:41:13;;;;;;;10.43;5.97;;;8.90;99.90;;;;;;4993875;28;20321;-56
2023/05/19 05:43:41;;;;;;;9.07;5.33;;;9.00;99.90;;;;;;4992540;28;20313;-57
2023/05/19 05:46:09;;;;;;;9.47;5.70;;;9.20;99.90;;;;;;4974100;28;20274;-56
2023/05/19 05:48:38;;;;;;;10.77;6.20;;;9.40;99.90;;;;;;4974832;28;20287;-56
2023/05/19 05:51:08;;;;;;;11.43;5.70;;;9.60;99.90;;;;;;4986702;28;20230;-56
2023/05/19 05:53:42;;;;;;;9.83;5.80;;;9.60;99.90;;;;;;4993393;28;20316;-57
2023/05/19 05:56:13;;;;;;;10.40;5.47;;;9.70;99.90;;;;;;4993524;28;20256;-56
2023/05/19 05:58:48;;;;;;;10.40;5.23;;;9.60;99.90;;;;;;4993149;28;20693;-55
2023/05/19 06:01:16;;;;;;;9.00;5.60;;;9.60;99.90;;;;;;4977197;28;20318;-57
2023/05/19 06:03:45;;;;;;;13.50;6.13;;;9.60;99.90;;;;;;4973814;28;20618;-56
2023/05/19 06:06:19;;;;;;;6.53;4.97;;;9.50;99.90;;;;;;4974762;28;20698;-57
2023/05/19 06:08:47;;;;;;;9.77;5.43;;;9.50;99.90;;;;;;4954475;29;20725;-57
2023/05/19 06:11:15;;;;;;;8.83;5.30;;;9.60;99.90;;;;;;4973209;28;20227;-57
2023/05/19 06:13:43;;;;;;;8.97;5.37;;;9.70;99.90;;;;;;4974818;28;20712;-56
2023/05/19 06:16:19;;;;;;;9.20;6.13;;;9.70;99.90;;;;;;4974264;28;20231;-56
2023/05/19 06:18:48;;;;;;;9.33;5.63;;;9.80;99.90;;;;;;4974493;28;20301;-57
2023/05/19 06:21:16;;;;;;;9.27;5.23;;;9.90;99.90;;;;;;4988158;28;20222;-55
2023/05/19 06:23:45;;;;;;;9.97;5.37;;;10.10;99.90;;;;;;4982371;28;20227;-56
2023/05/19 06:26:14;;;;;;;9.13;6.10;;;10.40;99.90;;;;;;4992942;28;20226;-56
2023/05/19 06:28:42;;;;;;;13.80;6.57;;;10.60;99.90;;;;;;4993995;28;20237;-57
2023/05/19 06:31:10;;;;;;;10.70;6.30;;;10.80;99.90;;;;;;4991801;28;20323;-56
2023/05/19 06:33:49;;;;;;;10.97;5.77;;;10.90;99.90;;;;;;4992697;28;20235;-57
2023/05/19 06:36:18;;;;;;;11.13;6.07;;;10.90;99.90;;;;;;4992676;28;20231;-56
2023/05/19 06:38:48;;;;;;;9.17;6.37;;;10.90;99.90;;;;;;4992585;28;20302;-56
2023/05/19 06:41:16;;;;;;;10.33;5.50;;;11.00;99.90;;;;;;4978343;28;20314;-56
2023/05/19 06:43:47;;;;;;;12.80;6.40;;;11.30;99.90;;;;;;4997355;28;20227;-57
2023/05/19 06:46:16;;;;;;;10.23;6.10;;;11.80;99.90;;;;;;4979577;28;20585;-57
2023/05/19 06:48:44;;;;;;;12.63;5.73;;;12.10;99.90;;;;;;4972911;28;20242;-57
2023/05/19 06:51:14;;;;;;;9.33;5.37;;;12.30;99.90;;;;;;4982692;28;20235;-57
2023/05/19 06:53:43;;;;;;;11.27;5.97;;;12.70;99.90;;;;;;4976536;28;20225;-56
2023/05/19 06:56:13;;;;;;;9.63;4.90;;;13.10;99.90;;;;;;4972971;28;20708;-56
2023/05/19 06:58:42;;;;;;;11.03;5.70;;;13.70;99.90;;;;;;4972788;28;20635;-56
2023/05/19 07:01:11;;;;;;;9.80;5.17;;;13.80;99.90;;;;;;4973035;28;20241;-56
2023/05/19 07:03:45;;;;;;;8.87;4.83;;;14.30;99.90;;;;;;4969569;28;20233;-57
2023/05/19 07:06:14;;;;;;;11.10;4.87;;;14.70;99.90;;;;;;4953641;29;20706;-56
2023/05/19 07:08:43;;;;;;;9.90;5.00;;;14.90;99.90;;;;;;4953533;29;20241;-57
2023/05/19 07:11:13;;;;;;;11.40;4.63;;;15.00;99.90;;;;;;4975307;28;20226;-55
2023/05/19 07:13:43;;;;;;;11.63;4.70;;;15.20;99.90;;;;;;4993154;28;20697;-56
2023/05/19 07:16:13;;;;;;;9.57;4.77;;;15.30;99.90;;;;;;4981633;28;20238;-56
2023/05/19 07:18:42;;;;;;;6.83;4.77;;;15.40;99.90;;;;;;4973541;28;20234;-57
2023/05/19 07:21:11;;;;;;;9.90;5.27;;;15.70;99.90;;;;;;4982685;28;20226;-56
2023/05/19 07:23:39;;;;;;;8.37;4.30;;;15.70;99.90;;;;;;4988664;28;20316;-57
2023/05/19 07:26:07;;;;;;;7.43;4.23;;;16.00;99.90;;;;;;4987814;28;20234;-57
2023/05/19 07:28:37;;;;;;;10.43;4.30;;;16.30;99.90;;;;;;4983513;28;20226;-57
2023/05/19 07:31:08;;;;;;;6.70;3.63;;;16.60;99.90;;;;;;4973585;28;20258;-57
2023/05/19 07:33:36;;;;;;;10.67;4.17;;;16.80;99.90;;;;;;4973649;28;20223;-55
2023/05/19 07:36:04;;;;;;;7.77;4.37;;;16.90;99.90;;;;;;4973849;28;20301;-57
2023/05/19 07:38:33;;;;;;;9.77;4.03;;;17.10;99.90;;;;;;4976373;28;20753;-55
2023/05/19 07:41:01;;;;;;;11.73;3.70;;;17.20;99.90;;;;;;4989999;28;20233;-56
2023/05/19 07:43:30;;;;;;;8.17;3.60;;;17.40;99.90;;;;;;4989801;28;20297;-56
2023/05/19 07:45:59;;;;;;;11.47;3.60;;;17.40;99.90;;;;;;4983757;28;20289;-56
2023/05/19 07:48:28;;;;;;;10.27;3.60;;;17.80;99.90;;;;;;4985460;28;20233;-57
2023/05/19 07:50:56;;;;;;;6.33;3.23;;;17.90;99.90;;;;;;4992551;28;20240;-56
2023/05/19 07:53:24;;;;;;;8.47;3.73;;;18.10;99.90;;;;;;4986324;28;20273;-56
2023/05/19 07:55:52;;;;;;;8.80;3.70;;;18.50;99.90;;;;;;4984287;28;20273;-57
2023/05/19 07:58:22;;;;;;;9.83;3.57;;;18.60;99.90;;;;;;4975935;28;20234;-55
2023/05/19 08:00:50;;;;;;;9.30;3.33;;;18.20;99.90;;;;;;4992618;28;20709;-56
2023/05/19 08:03:22;;;;;;;9.40;3.87;;;18.00;99.90;;;;;;4992189;28;20228;-57
2023/05/19 08:05:50;;;;;;;9.93;3.40;;;17.90;99.90;;;;;;4992385;28;20218;-56
2023/05/19 08:08:19;;;;;;;7.63;3.47;;;18.00;99.90;;;;;;4970334;28;20223;-56
2023/05/19 08:10:47;;;;;;;6.73;3.20;;;18.10;99.90;;;;;;4973137;28;20246;-55
2023/05/19 08:13:15;;;;;;;8.70;3.60;;;18.50;99.90;;;;;;4977780;28;20227;-56
2023/05/19 08:15:43;;;;;;;9.17;3.77;;;19.00;99.90;;;;;;4979240;28;20265;-57
2023/05/19 08:18:11;;;;;;;6.80;3.60;;;19.00;99.90;;;;;;4976855;28;20259;-55
2023/05/19 08:20:40;;;;;;;11.33;3.97;;;18.90;99.90;;;;;;4978472;28;20323;-57
2023/05/19 08:23:09;;;;;;;8.37;3.10;;;18.60;99.90;;;;;;4980648;28;20228;-55
2023/05/19 08:25:37;;;;;;;7.37;3.27;;;19.00;99.90;;;;;;4981673;28;21019;-57
2023/05/19 08:28:05;;;;;;;7.20;3.17;;;19.40;99.90;;;;;;4977820;28;20220;-56
2023/05/19 08:30:33;;;;;;;7.03;3.03;;;20.00;99.90;;;;;;4981404;28;20576;-56
2023/05/19 08:33:02;;;;;;;6.53;2.90;;;20.00;99.90;;;;;;4980318;28;20257;-54
2023/05/19 08:35:30;;;;;;;7.47;2.93;;;20.20;99.90;;;;;;4981758;28;20233;-56
2023/05/19 08:37:59;;;;;;;6.70;3.13;;;19.90;99.90;;;;;;4977027;28;20266;-55
2023/05/19 08:40:30;;;;;;;7.80;3.20;;;20.40;99.90;;;;;;4980497;28;20687;-56
2023/05/19 08:42:58;;;;;;;10.67;3.27;;;20.20;99.90;;;;;;4981906;28;20224;-56
2023/05/19 08:45:27;;;;;;;7.80;3.00;;;19.90;99.90;;;;;;4981959;28;20265;-53
2023/05/19 08:47:55;;;;;;;7.33;3.17;;;19.70;99.90;;;;;;4979361;28;20233;-55
2023/05/19 08:50:30;;;;;;;6.80;2.80;;;20.10;99.90;;;;;;4982181;28;20247;-55
2023/05/19 08:53:08;;;;;;;6.50;2.60;;;20.40;99.90;;;;;;4979875;28;20846;-53
2023/05/19 08:55:57;;;;;;;9.77;3.37;;;21.00;99.90;;;;;;4980872;28;20230;-55
2023/05/19 08:58:26;;;;;;;7.07;3.10;;;20.60;99.90;;;;;;4978849;28;20310;-56
2023/05/19 09:00:57;;;;;;;7.30;3.03;;;20.00;99.90;;;;;;4982132;28;20696;-57
2023/05/19 09:03:27;;;;;;;7.00;2.97;;;19.70;99.90;;;;;;4982181;28;20217;-56
2023/05/19 09:05:56;;;;;;;7.63;3.00;;;19.50;99.90;;;;;;4981161;28;20229;-56
2023/05/19 09:08:25;;;;;;;8.10;2.63;;;19.50;99.90;;;;;;4978347;28;20229;-55
2023/05/19 09:10:53;;;;;;;6.57;2.27;;;19.80;99.90;;;;;;4980600;28;20807;-56
2023/05/19 09:13:21;;;;;;;6.90;2.53;;;20.10;99.90;;;;;;4981573;28;20261;-55
2023/05/19 09:15:51;;;;;;;10.07;2.50;;;20.10;99.90;;;;;;4980506;28;20738;-56
2023/05/19 09:18:19;;;;;;;7.10;2.37;;;20.50;99.90;;;;;;4978134;28;20229;-56
2023/05/19 09:20:47;;;;;;;5.80;2.17;;;20.90;99.90;;;;;;4978935;28;20599;-55
2023/05/19 09:23:17;;;;;;;6.13;2.20;;;20.90;99.90;;;;;;4981567;28;20233;-54
2023/05/19 09:25:50;;;;;;;6.83;2.40;;;20.90;99.90;;;;;;4980979;28;20229;-57
2023/05/19 09:28:24;;;;;;;7.33;2.33;;;21.00;99.90;;;;;;4977307;28;20233;-53
2023/05/19 09:31:02;;;;;;;8.27;2.23;;;20.90;99.90;;;;;;4979799;28;20724;-56
2023/05/19 09:33:32;;;;;;;7.63;2.20;;;20.90;99.90;;;;;;4981502;28;20763;-55
2023/05/19 09:36:00;;;;;;;6.97;2.43;;;20.90;99.90;;;;;;4981612;28;20285;-55
2023/05/19 09:38:28;;;;;;;6.13;2.37;;;20.70;99.90;;;;;;4977962;28;20321;-55
2023/05/19 09:40:59;;;;;;;7.33;2.57;;;20.50;99.90;;;;;;4981776;28;20226;-56
2023/05/19 09:43:28;;;;;;;6.70;2.20;;;20.50;99.90;;;;;;4980644;28;20339;-55
2023/05/19 09:46:00;;;;;;;5.57;2.23;;;20.70;99.90;;;;;;4981307;28;20601;-57
2023/05/19 09:48:29;;;;;;;6.37;2.30;;;21.30;99.90;;;;;;4978080;28;20235;-56
2023/05/19 09:50:57;;;;;;;7.50;2.23;;;21.80;99.90;;;;;;4980675;28;20330;-55
2023/05/19 09:53:26;;;;;;;8.90;2.30;;;22.10;99.90;;;;;;4980373;28;20767;-56
2023/05/19 09:55:56;;;;;;;8.60;2.43;;;21.80;99.90;;;;;;4981012;28;20229;-56
2023/05/19 09:58:26;;;;;;;7.70;2.50;;;21.70;99.90;;;;;;4977842;28;20222;-56
2023/05/19 10:00:55;;;;;;;7.03;2.30;;;21.70;99.90;;;;;;4976748;28;20233;-56
2023/05/19 10:03:25;;;;;;;10.90;2.50;;;21.80;99.90;;;;;;4980277;28;20235;-56
2023/05/19 10:05:56;;;;;;;4.67;1.80;;;21.70;99.90;;;;;;4980778;28;20222;-57
2023/05/19 10:08:26;;;;;;;6.30;2.47;;;21.80;99.90;;;;;;4977305;28;20218;-54
2023/05/19 10:10:54;;;;;;;6.97;2.70;;;22.00;99.90;;;;;;4980846;28;20745;-56
2023/05/19 10:13:23;;;;;;;8.70;2.43;;;22.10;99.90;;;;;;4979701;28;20225;-55
2023/05/19 10:15:54;;;;;;;7.43;2.83;;;22.00;99.90;;;;;;4977431;28;20241;-55
2023/05/19 10:18:28;;;;;;;7.23;2.33;;;22.10;99.90;;;;;;4976416;28;20217;-55
2023/05/19 10:20:57;;;;;;;9.63;2.37;;;22.20;99.90;;;;;;4979999;28;20246;-56
2023/05/19 10:23:25;;;;;;;4.57;2.23;;;22.90;99.90;;;;;;4980648;28;20698;-55
2023/05/19 10:25:56;;;;;;;7.90;2.77;;;23.00;99.90;;;;;;4979346;28;20222;-57
2023/05/19 10:28:31;;;;;;;9.57;2.77;;;22.80;99.90;;;;;;4975237;28;20628;-55
2023/05/19 10:31:02;;;;;;;8.30;3.07;;;22.90;99.90;;;;;;4979944;28;20244;-54
2023/05/19 10:33:41;;;;;;;7.57;3.00;;;22.80;99.90;;;;;;4980359;28;20313;-56
2023/05/19 10:36:25;;;;;;;6.43;2.67;;;23.00;99.90;;;;;;4979825;28;20230;-54
2023/05/19 10:38:58;;;;;;;5.77;2.27;;;23.00;99.90;;;;;;4974086;28;20317;-56
2023/05/19 10:41:33;;;;;;;7.13;2.40;;;22.90;99.90;;;;;;4979484;28;20239;-55
2023/05/19 10:44:09;;;;;;;6.03;2.27;;;23.20;99.90;;;;;;4976692;28;21178;-53
2023/05/19 10:46:40;;;;;;;7.73;2.90;;;22.60;99.90;;;;;;4976180;28;20620;-53
2023/05/19 10:49:08;;;;;;;7.77;2.33;;;21.60;99.90;;;;;;4974109;28;20581;-55
2023/05/19 10:51:37;;;;;;;6.70;2.47;;;21.40;99.90;;;;;;4976976;28;20728;-56
2023/05/19 10:54:08;;;;;;;7.37;2.57;;;21.00;99.90;;;;;;4975837;28;20276;-55
2023/05/19 10:56:41;;;;;;;4.97;1.97;;;21.40;99.90;;;;;;4976808;28;20244;-56
2023/05/19 10:59:32;;;;;;;5.13;2.07;;;22.40;99.90;;;;;;4974696;28;20235;-56
2023/05/19 11:02:05;;;;;;;3.97;2.30;;;22.30;99.90;;;;;;4979538;28;20623;-56
2023/05/19 11:04:47;;;;;;;7.73;2.10;;;21.90;99.90;;;;;;4979709;28;20320;-53
2023/05/19 11:07:20;;;;;;;6.77;2.10;;;22.20;99.90;;;;;;4977822;28;20240;-55
2023/05/19 11:09:51;;;;;;;4.93;2.10;;;22.50;99.90;;;;;;4973802;28;20254;-56
2023/05/19 11:12:23;;;;;;;7.07;2.70;;;22.70;99.90;;;;;;4975247;28;20230;-56
2023/05/19 11:14:53;;;;;;;6.00;2.03;;;22.00;99.90;;;;;;4974940;28;20279;-56
2023/05/19 11:17:26;;;;;;;4.00;2.10;;;21.30;99.90;;;;;;4973874;28;20754;-55
2023/05/19 11:19:55;;;;;;;4.37;1.90;;;20.90;99.90;;;;;;4976785;28;20634;-57
2023/05/19 11:22:24;;;;;;;5.47;1.97;;;20.60;99.90;;;;;;4974090;28;20680;-56
2023/05/19 11:24:55;;;;;;;6.87;2.20;;;20.70;99.90;;;;;;4976880;28;20229;-55
2023/05/19 11:27:26;;;;;;;5.50;1.90;;;21.40;99.90;;;;;;4976201;28;20213;-54
2023/05/19 11:29:55;;;;;;;5.50;1.90;;;22.20;99.90;;;;;;4975904;28;20222;-56
2023/05/19 11:32:29;;;;;;;6.43;1.80;;;22.60;99.90;;;;;;4976763;28;20328;-55
2023/05/19 11:34:58;;;;;;;6.60;2.00;;;23.10;99.90;;;;;;4977271;28;20238;-53
2023/05/19 11:37:27;;;;;;;5.47;2.00;;;23.00;99.90;;;;;;4975614;28;20724;-52
2023/05/19 11:39:55;;;;;;;3.57;1.80;;;23.00;99.90;;;;;;4978735;28;20665;-52
2023/05/19 11:42:24;;;;;;;5.87;2.10;;;22.80;99.90;;;;;;4974809;28;20306;-54
2023/05/19 11:44:55;;;;;;;3.90;1.80;;;22.60;99.90;;;;;;4974123;28;20708;-54
2023/05/19 11:47:24;;;;;;;4.33;2.17;;;22.50;99.90;;;;;;4975495;28;20222;-53
2023/05/19 11:49:55;;;;;;;10.60;2.80;;;21.90;99.90;;;;;;4979716;28;20324;-55
2023/05/19 11:52:24;;;;;;;9.50;2.67;;;21.00;99.90;;;;;;4980751;28;20786;-53
2023/05/19 11:54:52;;;;;;;5.90;2.43;;;20.50;99.90;;;;;;4977860;28;20328;-55
2023/05/19 11:57:20;;;;;;;5.23;2.10;;;20.30;99.90;;;;;;4981821;28;20230;-51
2023/05/19 11:59:51;;;;;;;8.50;2.50;;;20.00;99.90;;;;;;4979882;28;20245;-55
2023/05/19 12:02:21;;;;;;;6.57;2.37;;;20.10;99.90;;;;;;4981477;28;20237;-55
2023/05/19 12:04:49;;;;;;;5.20;2.20;;;20.60;99.90;;;;;;4981541;28;20235;-53
2023/05/19 12:07:21;;;;;;;4.77;1.80;;;20.70;99.90;;;;;;4980427;28;20239;-55
2023/05/19 12:09:50;;;;;;;4.60;1.97;;;20.80;99.90;;;;;;4979759;28;20797;-56
2023/05/19 12:12:20;;;;;;;5.40;2.00;;;20.40;99.90;;;;;;4982130;28;21108;-56
2023/05/19 12:14:49;;;;;;;5.97;2.00;;;20.20;99.90;;;;;;4979223;28;20236;-56
2023/05/19 12:17:19;;;;;;;4.57;1.80;;;20.20;99.90;;;;;;4978103;28;20230;-53
2023/05/19 12:19:48;;;;;;;6.63;2.00;;;20.40;99.90;;;;;;4972849;28;20250;-56
2023/05/19 12:22:19;;;;;;;4.93;1.60;;;20.70;99.90;;;;;;4975836;28;20494;-53
2023/05/19 12:24:47;;;;;;;5.23;1.90;;;20.40;99.90;;;;;;4975621;28;20226;-55
2023/05/19 12:27:19;;;;;;;4.60;1.73;;;20.10;99.90;;;;;;4977017;28;20235;-55
2023/05/19 12:29:50;;;;;;;4.97;1.97;;;19.80;99.90;;;;;;4973944;28;20693;-55
2023/05/19 12:32:18;;;;;;;4.13;2.13;;;20.10;99.90;;;;;;4974712;28;20751;-54
2023/05/19 12:34:46;;;;;;;3.37;1.60;;;20.40;99.90;;;;;;4975831;28;20256;-54
2023/05/19 12:37:14;;;;;;;4.40;1.80;;;20.50;99.90;;;;;;4974071;28;20701;-56
2023/05/19 12:39:44;;;;;;;3.97;1.80;;;20.40;99.90;;;;;;4971551;28;20727;-57
2023/05/19 12:42:12;;;;;;;4.80;1.80;;;20.30;99.90;;;;;;4976973;28;20240;-56
2023/05/19 12:44:46;;;;;;;4.57;1.80;;;20.30;99.90;;;;;;4977155;28;20921;-53
2023/05/19 12:47:15;;;;;;;4.80;1.70;;;20.30;99.90;;;;;;4976356;28;20279;-56
2023/05/19 12:49:56;;;;;;;5.03;2.00;;;20.60;99.90;;;;;;4975373;28;20237;-56
2023/05/19 12:52:24;;;;;;;5.73;2.00;;;20.70;99.90;;;;;;4979712;28;20227;-55
2023/05/19 12:55:00;;;;;;;7.70;1.80;;;20.50;99.90;;;;;;4977073;28;20228;-56
2023/05/19 12:57:30;;;;;;;7.10;2.07;;;20.40;99.90;;;;;;4976198;28;20674;-54
2023/05/19 13:00:05;;;;;;;4.73;1.83;;;20.40;99.90;;;;;;4973127;28;20225;-52
2023/05/19 13:02:35;;;;;;;4.37;1.60;;;20.60;99.90;;;;;;4976117;28;20234;-55
2023/05/19 13:05:03;;;;;;;4.20;1.90;;;20.70;99.90;;;;;;4976037;28;20234;-55
2023/05/19 13:07:31;;;;;;;3.87;1.80;;;20.70;99.90;;;;;;4972655;28;20261;-55